Kinrikimaru — JL6545 — position and weather

sailwx.info

Track history (hours):
 
Tides and Currents Weather Stations Pressure Air Temp Water Temp Dewpoint Dewpoint Depression Visibility Wind Speed Wind Dir Waves Ship Positions

Kinrikimaru

Last reported at 2015-Apr-17 10:07 UTC. Time now 2015-Apr-21 11:42 UTC.
Position N 34°60' E 139°25'.

Length 76 m; draft 4 m.

Type: Cargo ship. MMSI: 431500615.

Date/timePositionNaut miles runAvg speedWind from/ knotsBaromVisibWave heightAir tempDewpointWater temp
2015-Apr-17 10:07N 34°60' E 139°25'711.5
2015-Apr-17 09:32N 35°03' E 139°33'1111.4
2015-Apr-17 08:33N 35°09' E 139°44'1110.8
2015-Apr-17 07:34N 35°20' E 139°42'10 9.9
2015-Apr-17 06:33N 35°30' E 139°43'0 0.0
2015-Apr-17 05:32N 35°30' E 139°43'0 0.0
2015-Apr-17 04:23N 35°30' E 139°43'0 0.0
2015-Apr-17 03:32N 35°30' E 139°43'0 0.0
2015-Apr-17 02:32N 35°30' E 139°43'0 0.0
2015-Apr-17 01:32N 35°30' E 139°43'0 0.0
2015-Apr-17 00:32N 35°30' E 139°43'0 0.0
2015-Apr-16 23:32N 35°30' E 139°43'0 0.0
2015-Apr-16 22:32N 35°30' E 139°43'0 0.0
2015-Apr-16 21:32N 35°30' E 139°43'0 0.0
2015-Apr-16 20:32N 35°30' E 139°43'0 0.0
2015-Apr-16 19:32N 35°30' E 139°43'0 0.0
2015-Apr-16 18:32N 35°30' E 139°43'0 0.0
2015-Apr-16 17:32N 35°30' E 139°43'0 0.0
2015-Apr-16 16:32N 35°30' E 139°43'0 0.0
2015-Apr-16 15:29N 35°30' E 139°43'0 0.0
2015-Apr-16 14:32N 35°30' E 139°43'0 0.0
2015-Apr-16 13:32N 35°30' E 139°43'0 0.0
2015-Apr-16 12:32N 35°30' E 139°43'0 0.0
2015-Apr-16 11:32N 35°30' E 139°43'0 0.0
2015-Apr-16 10:32N 35°30' E 139°43'0 0.0
2015-Apr-16 09:32N 35°30' E 139°43'0 0.0
2015-Apr-16 08:20N 35°30' E 139°43'0 0.0
2015-Apr-16 07:32N 35°30' E 139°43'0 0.0
2015-Apr-16 06:26N 35°30' E 139°43'0 0.0
2015-Apr-16 05:29N 35°30' E 139°43'0 0.0
2015-Apr-16 04:29N 35°30' E 139°43'0 0.1
2015-Apr-16 03:06N 35°30' E 139°43'0 0.0
2015-Apr-16 02:27N 35°30' E 139°43'0 0.0
2015-Apr-16 01:30N 35°30' E 139°43'0 0.0
2015-Apr-16 00:24N 35°30' E 139°43'0 0.0
2015-Apr-15 23:27N 35°30' E 139°43'2 2.1
2015-Apr-15 22:33N 35°28' E 139°42'2 1.7
2015-Apr-15 21:27N 35°26' E 139°43'0 0.0
2015-Apr-15 20:27N 35°26' E 139°43'0 0.0
2015-Apr-15 19:30N 35°26' E 139°43'0 0.1
2015-Apr-15 18:24N 35°27' E 139°43'0 0.1
2015-Apr-15 17:33N 35°27' E 139°43'0 0.0
2015-Apr-15 16:33N 35°27' E 139°43'0 0.0
2015-Apr-15 15:33N 35°27' E 139°43'0 0.1
2015-Apr-15 14:33N 35°26' E 139°43'0 0.0
2015-Apr-15 13:30N 35°26' E 139°43'0 0.0
2015-Apr-15 12:33N 35°26' E 139°43'0 0.0
2015-Apr-15 11:33N 35°26' E 139°43'0 0.1
2015-Apr-15 10:33N 35°26' E 139°43'8 8.3
2015-Apr-15 09:34N 35°18' E 139°44'1211.6
2015-Apr-15 08:33N 35°07' E 139°45'1412.7
2015-Apr-15 07:29N 34°57' E 139°33'23410.6
2015-Apr-14 09:27N 34°02' E 134°58'1011.2
2015-Apr-14 08:32N 34°12' E 134°57'1310.8
2015-Apr-14 07:19N 34°24' E 135°03'1012.8
2015-Apr-14 06:33N 34°30' E 135°13'1211.6
2015-Apr-14 05:33N 34°36' E 135°25'1 0.9
2015-Apr-14 04:16N 34°35' E 135°26'0 0.0
2015-Apr-14 03:22N 34°35' E 135°26'0 0.0
2015-Apr-14 02:16N 34°35' E 135°26'0 0.0
2015-Apr-14 00:28N 34°35' E 135°26'0 0.4
2015-Apr-13 23:23N 34°35' E 135°25'0 0.0
2015-Apr-13 22:29N 34°35' E 135°25'0 0.0
2015-Apr-13 21:23N 34°35' E 135°25'0 0.0
2015-Apr-13 20:29N 34°35' E 135°25'0 0.0
2015-Apr-13 19:29N 34°35' E 135°25'0 0.0
2015-Apr-13 18:29N 34°35' E 135°25'0 0.0
2015-Apr-13 17:29N 34°35' E 135°25'0 0.0
2015-Apr-13 16:05N 34°35' E 135°25'0 0.0
2015-Apr-13 15:29N 34°35' E 135°25'0 0.1
2015-Apr-13 14:23N 34°35' E 135°25'0 0.1
2015-Apr-13 13:29N 34°35' E 135°25'5 5.2
2015-Apr-13 12:33N 34°34' E 135°20'1312.7
2015-Apr-13 11:33N 34°25' E 135°09'1212.1
2015-Apr-13 10:32N 34°16' E 134°59'8 0.7
2015-Apr-12 22:30N 34°09' E 134°54'1512.4
2015-Apr-12 21:19N 34°22' E 135°03'5 6.3
2015-Apr-12 20:33N 34°24' E 135°09'0 0.0
2015-Apr-12 19:27N 34°24' E 135°09'0 0.0
2015-Apr-12 17:21N 34°24' E 135°09'0 0.0
2015-Apr-12 16:27N 34°24' E 135°09'0 0.0
2015-Apr-12 15:15N 34°24' E 135°09'0 0.1
2015-Apr-12 14:33N 34°24' E 135°09'0 0.0
2015-Apr-12 13:33N 34°24' E 135°09'7 7.2
2015-Apr-12 12:33N 34°31' E 135°06'  
2015-Apr-10 06:33N 34°36' E 135°05'1313.0
2015-Apr-10 05:33N 34°36' E 135°21'4 4.3
2015-Apr-10 04:33N 34°35' E 135°26'0 0.0
2015-Apr-10 02:12N 34°35' E 135°26'0 0.0
2015-Apr-10 01:30N 34°35' E 135°26'0 0.0
2015-Apr-10 00:30N 34°35' E 135°26'0 0.0
2015-Apr-09 23:31N 34°35' E 135°26'4 4.1
2015-Apr-09 22:33N 34°35' E 135°21'1312.6
2015-Apr-09 21:33N 34°26' E 135°10'1312.0
2015-Apr-09 20:29N 34°17' E 134°59'1212.2
2015-Apr-09 19:31N 34°05' E 135°00'22710.8
2015-Apr-08 22:25N 34°58' E 139°29'1113.1
2015-Apr-08 21:33N 35°05' E 139°40'1212.3
2015-Apr-08 20:33N 35°17' E 139°45'8 7.8
2015-Apr-08 19:33N 35°23' E 139°40'0 0.0
2015-Apr-08 18:31N 35°23' E 139°40'0 0.0
2015-Apr-08 17:31N 35°23' E 139°40'0 0.0
2015-Apr-08 16:31N 35°23' E 139°40'0 0.0
2015-Apr-08 15:31N 35°23' E 139°40'0 0.0
2015-Apr-08 14:31N 35°23' E 139°40'0 0.0
2015-Apr-08 13:31N 35°23' E 139°40'0 0.0
2015-Apr-08 12:31N 35°23' E 139°40'0 0.0
2015-Apr-08 11:31N 35°23' E 139°40'0 0.0
2015-Apr-08 10:31N 35°23' E 139°40'0 0.0
2015-Apr-08 09:31N 35°23' E 139°40'0 0.0
2015-Apr-08 08:31N 35°23' E 139°40'2 1.8
2015-Apr-08 07:33N 35°24' E 139°42'6 6.1
2015-Apr-08 06:33N 35°30' E 139°43'0 0.0
2015-Apr-08 05:31N 35°30' E 139°43'0 0.0
2015-Apr-08 04:31N 35°30' E 139°43'0 0.0
2015-Apr-08 03:28N 35°30' E 139°43'0 0.0
2015-Apr-08 02:31N 35°30' E 139°43'0 0.0
2015-Apr-08 01:31N 35°30' E 139°43'0 0.0
2015-Apr-08 00:31N 35°30' E 139°43'0 0.0
2015-Apr-07 23:31N 35°30' E 139°43'2 2.0
2015-Apr-07 22:34N 35°28' E 139°42'2 1.5
2015-Apr-07 21:32N 35°26' E 139°43'0 0.0
2015-Apr-07 20:29N 35°26' E 139°43'0 0.0
2015-Apr-07 19:29N 35°26' E 139°43'0 0.0
2015-Apr-07 18:32N 35°26' E 139°43'0 0.0
2015-Apr-07 17:32N 35°26' E 139°43'9 8.8
2015-Apr-07 16:33N 35°18' E 139°45'1211.5
2015-Apr-07 15:33N 35°06' E 139°44'1212.1
2015-Apr-07 14:33N 35°01' E 139°31'  
Track history (hours):
 
Tides and Currents Weather Stations Pressure Air Temp Water Temp Dewpoint Dewpoint Depression Visibility Wind Speed Wind Dir Waves Ship Positions

Kinrikimaru

Last reported at 2015-Apr-17 10:07 UTC. Time now 2015-Apr-21 11:42 UTC.
Position N 34°60' E 139°25'.

Length 76 m; draft 4 m.

Type: Cargo ship. MMSI: 431500615.

Date/timePositionNaut miles runAvg speedWind from/ knotsBaromVisibWave heightAir tempDewpointWater temp
2015-Apr-17 10:07N 34°60' E 139°25'711.5
2015-Apr-17 09:32N 35°03' E 139°33'1111.4
2015-Apr-17 08:33N 35°09' E 139°44'1110.8
2015-Apr-17 07:34N 35°20' E 139°42'10 9.9
2015-Apr-17 06:33N 35°30' E 139°43'0 0.0
2015-Apr-17 05:32N 35°30' E 139°43'0 0.0
2015-Apr-17 04:23N 35°30' E 139°43'0 0.0
2015-Apr-17 03:32N 35°30' E 139°43'0 0.0
2015-Apr-17 02:32N 35°30' E 139°43'0 0.0
2015-Apr-17 01:32N 35°30' E 139°43'0 0.0
2015-Apr-17 00:32N 35°30' E 139°43'0 0.0
2015-Apr-16 23:32N 35°30' E 139°43'0 0.0
2015-Apr-16 22:32N 35°30' E 139°43'0 0.0
2015-Apr-16 21:32N 35°30' E 139°43'0 0.0
2015-Apr-16 20:32N 35°30' E 139°43'0 0.0
2015-Apr-16 19:32N 35°30' E 139°43'0 0.0
2015-Apr-16 18:32N 35°30' E 139°43'0 0.0
2015-Apr-16 17:32N 35°30' E 139°43'0 0.0
2015-Apr-16 16:32N 35°30' E 139°43'0 0.0
2015-Apr-16 15:29N 35°30' E 139°43'0 0.0
2015-Apr-16 14:32N 35°30' E 139°43'0 0.0
2015-Apr-16 13:32N 35°30' E 139°43'0 0.0
2015-Apr-16 12:32N 35°30' E 139°43'0 0.0
2015-Apr-16 11:32N 35°30' E 139°43'0 0.0
2015-Apr-16 10:32N 35°30' E 139°43'0 0.0
2015-Apr-16 09:32N 35°30' E 139°43'0 0.0
2015-Apr-16 08:20N 35°30' E 139°43'0 0.0
2015-Apr-16 07:32N 35°30' E 139°43'0 0.0
2015-Apr-16 06:26N 35°30' E 139°43'0 0.0
2015-Apr-16 05:29N 35°30' E 139°43'0 0.0
2015-Apr-16 04:29N 35°30' E 139°43'0 0.1
2015-Apr-16 03:06N 35°30' E 139°43'0 0.0
2015-Apr-16 02:27N 35°30' E 139°43'0 0.0
2015-Apr-16 01:30N 35°30' E 139°43'0 0.0
2015-Apr-16 00:24N 35°30' E 139°43'0 0.0
2015-Apr-15 23:27N 35°30' E 139°43'2 2.1
2015-Apr-15 22:33N 35°28' E 139°42'2 1.7
2015-Apr-15 21:27N 35°26' E 139°43'0 0.0
2015-Apr-15 20:27N 35°26' E 139°43'0 0.0
2015-Apr-15 19:30N 35°26' E 139°43'0 0.1
2015-Apr-15 18:24N 35°27' E 139°43'0 0.1
2015-Apr-15 17:33N 35°27' E 139°43'0 0.0
2015-Apr-15 16:33N 35°27' E 139°43'0 0.0
2015-Apr-15 15:33N 35°27' E 139°43'0 0.1
2015-Apr-15 14:33N 35°26' E 139°43'0 0.0
2015-Apr-15 13:30N 35°26' E 139°43'0 0.0
2015-Apr-15 12:33N 35°26' E 139°43'0 0.0
2015-Apr-15 11:33N 35°26' E 139°43'0 0.1
2015-Apr-15 10:33N 35°26' E 139°43'8 8.3
2015-Apr-15 09:34N 35°18' E 139°44'1211.6
2015-Apr-15 08:33N 35°07' E 139°45'1412.7
2015-Apr-15 07:29N 34°57' E 139°33'23410.6
2015-Apr-14 09:27N 34°02' E 134°58'1011.2
2015-Apr-14 08:32N 34°12' E 134°57'1310.8
2015-Apr-14 07:19N 34°24' E 135°03'1012.8
2015-Apr-14 06:33N 34°30' E 135°13'1211.6
2015-Apr-14 05:33N 34°36' E 135°25'1 0.9
2015-Apr-14 04:16N 34°35' E 135°26'0 0.0
2015-Apr-14 03:22N 34°35' E 135°26'0 0.0
2015-Apr-14 02:16N 34°35' E 135°26'0 0.0
2015-Apr-14 00:28N 34°35' E 135°26'0 0.4
2015-Apr-13 23:23N 34°35' E 135°25'0 0.0
2015-Apr-13 22:29N 34°35' E 135°25'0 0.0
2015-Apr-13 21:23N 34°35' E 135°25'0 0.0
2015-Apr-13 20:29N 34°35' E 135°25'0 0.0
2015-Apr-13 19:29N 34°35' E 135°25'0 0.0
2015-Apr-13 18:29N 34°35' E 135°25'0 0.0
2015-Apr-13 17:29N 34°35' E 135°25'0 0.0
2015-Apr-13 16:05N 34°35' E 135°25'0 0.0
2015-Apr-13 15:29N 34°35' E 135°25'0 0.1
2015-Apr-13 14:23N 34°35' E 135°25'0 0.1
2015-Apr-13 13:29N 34°35' E 135°25'5 5.2
2015-Apr-13 12:33N 34°34' E 135°20'1312.7
2015-Apr-13 11:33N 34°25' E 135°09'1212.1
2015-Apr-13 10:32N 34°16' E 134°59'8 0.7
2015-Apr-12 22:30N 34°09' E 134°54'1512.4
2015-Apr-12 21:19N 34°22' E 135°03'5 6.3
2015-Apr-12 20:33N 34°24' E 135°09'0 0.0
2015-Apr-12 19:27N 34°24' E 135°09'0 0.0
2015-Apr-12 17:21N 34°24' E 135°09'0 0.0
2015-Apr-12 16:27N 34°24' E 135°09'0 0.0
2015-Apr-12 15:15N 34°24' E 135°09'0 0.1
2015-Apr-12 14:33N 34°24' E 135°09'0 0.0
2015-Apr-12 13:33N 34°24' E 135°09'7 7.2
2015-Apr-12 12:33N 34°31' E 135°06'  
2015-Apr-10 06:33N 34°36' E 135°05'1313.0
2015-Apr-10 05:33N 34°36' E 135°21'4 4.3
2015-Apr-10 04:33N 34°35' E 135°26'0 0.0
2015-Apr-10 02:12N 34°35' E 135°26'0 0.0
2015-Apr-10 01:30N 34°35' E 135°26'0 0.0
2015-Apr-10 00:30N 34°35' E 135°26'0 0.0
2015-Apr-09 23:31N 34°35' E 135°26'4 4.1
2015-Apr-09 22:33N 34°35' E 135°21'1312.6
2015-Apr-09 21:33N 34°26' E 135°10'1312.0
2015-Apr-09 20:29N 34°17' E 134°59'1212.2
2015-Apr-09 19:31N 34°05' E 135°00'22710.8
2015-Apr-08 22:25N 34°58' E 139°29'1113.1
2015-Apr-08 21:33N 35°05' E 139°40'1212.3
2015-Apr-08 20:33N 35°17' E 139°45'8 7.8
2015-Apr-08 19:33N 35°23' E 139°40'0 0.0
2015-Apr-08 18:31N 35°23' E 139°40'0 0.0
2015-Apr-08 17:31N 35°23' E 139°40'0 0.0
2015-Apr-08 16:31N 35°23' E 139°40'0 0.0
2015-Apr-08 15:31N 35°23' E 139°40'0 0.0
2015-Apr-08 14:31N 35°23' E 139°40'0 0.0
2015-Apr-08 13:31N 35°23' E 139°40'0 0.0
2015-Apr-08 12:31N 35°23' E 139°40'0 0.0
2015-Apr-08 11:31N 35°23' E 139°40'0 0.0
2015-Apr-08 10:31N 35°23' E 139°40'0 0.0
2015-Apr-08 09:31N 35°23' E 139°40'0 0.0
2015-Apr-08 08:31N 35°23' E 139°40'2 1.8
2015-Apr-08 07:33N 35°24' E 139°42'6 6.1
2015-Apr-08 06:33N 35°30' E 139°43'0 0.0
2015-Apr-08 05:31N 35°30' E 139°43'0 0.0
2015-Apr-08 04:31N 35°30' E 139°43'0 0.0
2015-Apr-08 03:28N 35°30' E 139°43'0 0.0
2015-Apr-08 02:31N 35°30' E 139°43'0 0.0
2015-Apr-08 01:31N 35°30' E 139°43'0 0.0
2015-Apr-08 00:31N 35°30' E 139°43'0 0.0
2015-Apr-07 23:31N 35°30' E 139°43'2 2.0
2015-Apr-07 22:34N 35°28' E 139°42'2 1.5
2015-Apr-07 21:32N 35°26' E 139°43'0 0.0
2015-Apr-07 20:29N 35°26' E 139°43'0 0.0
2015-Apr-07 19:29N 35°26' E 139°43'0 0.0
2015-Apr-07 18:32N 35°26' E 139°43'0 0.0
2015-Apr-07 17:32N 35°26' E 139°43'9 8.8
2015-Apr-07 16:33N 35°18' E 139°45'1211.5
2015-Apr-07 15:33N 35°06' E 139°44'1212.1
2015-Apr-07 14:33N 35°01' E 139°31'  

Dump ship's entire track history